createdAt,value
2019-04-05T00:00:19.344Z,83.30
2019-04-05T00:02:49.822Z,82.50
2019-04-05T00:05:20.317Z,82.60
2019-04-05T00:07:50.990Z,83.90
2019-04-05T00:10:21.466Z,84.10
2019-04-05T00:12:51.976Z,84.00
2019-04-05T00:15:22.447Z,84.20
2019-04-05T00:17:52.961Z,84.80
2019-04-05T00:20:23.458Z,85.60
2019-04-05T00:22:53.972Z,85.00
2019-04-05T00:25:24.465Z,84.50
2019-04-05T00:27:54.982Z,84.30
2019-04-05T00:30:25.450Z,84.10
2019-04-05T00:32:55.944Z,84.10
2019-04-05T00:35:26.462Z,84.20
2019-04-05T00:37:56.973Z,84.50
2019-04-05T00:40:27.444Z,84.90
2019-04-05T00:42:57.967Z,84.70
2019-04-05T00:45:29.192Z,84.50
2019-04-05T00:47:59.763Z,85.00
2019-04-05T00:50:30.226Z,85.10
2019-04-05T00:53:02.002Z,85.20
2019-04-05T00:55:32.552Z,86.00
2019-04-05T00:58:03.125Z,86.20
2019-04-05T01:00:33.677Z,86.10
2019-04-05T01:03:04.163Z,86.90
2019-04-05T01:05:34.990Z,86.80
2019-04-05T01:08:05.570Z,87.40
2019-04-05T01:10:36.186Z,87.50
2019-04-05T01:13:06.841Z,86.90
2019-04-05T01:15:41.196Z,86.40
2019-04-05T01:18:09.597Z,86.30
2019-04-05T01:20:42.712Z,86.40
2019-04-05T01:23:14.504Z,86.90
2019-04-05T01:25:46.357Z,87.60
2019-04-05T01:28:18.659Z,87.60
2019-04-05T01:30:49.194Z,87.10
2019-04-05T01:33:19.698Z,87.00
2019-04-05T01:35:50.199Z,87.40
2019-04-05T01:38:20.752Z,88.10
2019-04-05T01:40:51.527Z,88.00
2019-04-05T01:43:22.503Z,87.70
2019-04-05T01:45:54.534Z,88.10
2019-04-05T01:48:25.183Z,87.50
2019-04-05T01:50:56.662Z,87.90
2019-04-05T01:53:27.311Z,88.40
2019-04-05T01:55:57.947Z,88.70
2019-04-05T01:58:30.091Z,88.80
2019-04-05T02:01:00.661Z,88.80
2019-04-05T02:03:31.197Z,89.20
2019-04-05T02:06:01.828Z,89.90
2019-04-05T02:08:34.052Z,90.20
2019-04-05T02:11:04.785Z,90.40
2019-04-05T02:13:35.328Z,90.50
2019-04-05T02:16:06.933Z,90.70
2019-04-05T02:18:37.619Z,90.90
2019-04-05T02:21:08.458Z,91.00
2019-04-05T02:23:39.076Z,91.20
2019-04-05T02:26:09.723Z,91.50
2019-04-05T02:28:40.203Z,91.60
2019-04-05T02:31:11.802Z,91.60
2019-04-05T02:33:42.368Z,91.70
2019-04-05T02:36:12.914Z,91.90
2019-04-05T02:38:43.418Z,92.00
2019-04-05T02:41:15.416Z,92.10
2019-04-05T02:43:47.556Z,92.20
2019-04-05T02:46:24.030Z,92.20
2019-04-05T02:48:51.798Z,92.30
2019-04-05T02:51:25.365Z,92.40
2019-04-05T02:53:58.106Z,92.70
2019-04-05T02:56:31.490Z,92.80
2019-04-05T02:59:02.829Z,92.90
2019-04-05T03:01:34.258Z,93.00
2019-04-05T03:04:05.423Z,93.20
2019-04-05T03:06:36.454Z,93.20
2019-04-05T03:09:07.858Z,93.30
2019-04-05T03:11:39.602Z,93.30
2019-04-05T03:14:11.373Z,93.10
2019-04-05T03:16:45.520Z,93.10
2019-04-05T03:19:19.461Z,93.80
2019-04-05T03:21:54.102Z,93.90
2019-04-05T03:24:29.291Z,94.00
2019-04-05T03:27:04.645Z,94.10
2019-04-05T03:29:35.635Z,94.30
2019-04-05T03:32:06.821Z,94.40
2019-04-05T03:34:37.411Z,94.40
2019-04-05T03:37:07.972Z,94.60
2019-04-05T03:39:38.502Z,94.60
2019-04-05T03:42:09.889Z,94.50
2019-04-05T03:44:40.900Z,94.40
2019-04-05T03:47:12.044Z,94.40
2019-04-05T03:49:43.629Z,94.50
2019-04-05T03:52:14.197Z,94.60
2019-04-05T03:54:44.789Z,94.60
2019-04-05T03:57:15.275Z,94.60
2019-04-05T03:59:45.872Z,94.80
2019-04-05T04:02:16.807Z,94.50
2019-04-05T04:04:47.362Z,94.40
2019-04-05T04:07:18.327Z,94.40
2019-04-05T04:09:49.156Z,94.40
2019-04-05T04:12:19.687Z,94.40
2019-04-05T04:14:51.024Z,94.60
2019-04-05T04:17:22.557Z,94.70
2019-04-05T04:19:53.102Z,94.90
2019-04-05T04:22:30.683Z,95.00
2019-04-05T04:25:01.296Z,95.10
2019-04-05T04:27:32.188Z,95.10
2019-04-05T04:30:03.422Z,95.20
2019-04-05T04:32:33.935Z,95.20
2019-04-05T04:35:07.601Z,95.00
2019-04-05T04:37:38.831Z,95.00
2019-04-05T04:40:09.470Z,95.10
2019-04-05T04:42:40.014Z,95.10
2019-04-05T04:45:13.328Z,95.20
2019-04-05T04:47:46.137Z,95.20
2019-04-05T04:50:17.347Z,95.10
2019-04-05T04:52:48.143Z,95.00
2019-04-05T04:55:18.769Z,95.00
2019-04-05T04:57:49.267Z,94.90
2019-04-05T05:00:20.571Z,95.00
2019-04-05T05:02:51.505Z,95.10
2019-04-05T05:05:22.202Z,95.00
2019-04-05T05:07:53.125Z,95.10
2019-04-05T05:10:24.842Z,95.10
2019-04-05T05:12:55.676Z,95.10
2019-04-05T05:15:27.415Z,95.20
2019-04-05T05:17:59.164Z,95.10
2019-04-05T05:20:30.042Z,95.20
2019-04-05T05:23:01.033Z,95.30
2019-04-05T05:25:32.029Z,95.30
2019-04-05T05:28:02.748Z,95.10
2019-04-05T05:30:33.372Z,94.90
2019-04-05T05:33:04.510Z,95.00
2019-04-05T05:35:35.275Z,95.10
2019-04-05T05:38:06.081Z,95.40
2019-04-05T05:40:38.307Z,95.40
2019-04-05T05:43:09.525Z,94.90
2019-04-05T05:45:40.091Z,94.90
2019-04-05T05:48:11.054Z,94.90
2019-04-05T05:50:42.339Z,94.90
2019-04-05T05:53:14.956Z,95.10
2019-04-05T05:55:45.408Z,94.90
2019-04-05T05:58:15.868Z,94.90
2019-04-05T06:00:46.359Z,95.00
2019-04-05T06:03:16.929Z,95.10
2019-04-05T06:05:47.390Z,95.10
2019-04-05T06:08:19.725Z,94.90
2019-04-05T06:10:50.208Z,94.80
2019-04-05T06:13:20.700Z,94.90
2019-04-05T06:15:51.233Z,94.80
2019-04-05T06:18:21.741Z,94.70
2019-04-05T06:20:52.296Z,94.70
2019-04-05T06:23:33.122Z,94.50
2019-04-05T06:25:55.052Z,94.30
2019-04-05T06:28:25.515Z,93.90
2019-04-05T06:30:55.971Z,93.70
2019-04-05T06:33:31.716Z,93.80
2019-04-05T06:35:58.646Z,93.60
2019-04-05T06:38:29.115Z,93.60
2019-04-05T06:40:59.623Z,93.30
2019-04-05T06:43:30.085Z,92.60
2019-04-05T06:46:01.538Z,92.50
2019-04-05T06:48:32.397Z,91.90
2019-04-05T06:51:02.867Z,92.10
2019-04-05T06:53:33.356Z,92.20
2019-04-05T06:56:03.838Z,91.70
2019-04-05T06:58:34.339Z,90.90
2019-04-05T07:01:04.882Z,90.30
2019-04-05T07:03:35.387Z,89.30
2019-04-05T07:06:05.923Z,88.30
2019-04-05T07:08:36.420Z,86.30
2019-04-05T07:11:06.898Z,84.00
2019-04-05T07:13:37.423Z,82.90
2019-04-05T07:16:10.928Z,81.30
2019-04-05T07:18:40.167Z,80.10
2019-04-05T07:21:10.778Z,78.70
2019-04-05T07:23:41.333Z,76.50
2019-04-05T07:26:11.804Z,75.70
2019-04-05T07:28:42.299Z,75.80
2019-04-05T07:31:12.767Z,75.30
2019-04-05T07:33:43.272Z,74.80
2019-04-05T07:36:14.342Z,72.60
2019-04-05T07:38:44.808Z,73.00
2019-04-05T07:41:15.325Z,72.50
2019-04-05T07:43:46.926Z,72.70
2019-04-05T07:46:17.424Z,71.60
2019-04-05T07:48:49.332Z,72.70
2019-04-05T07:51:22.600Z,70.60
2019-04-05T07:53:52.004Z,69.10
2019-04-05T07:56:24.449Z,67.30
2019-04-05T07:59:14.263Z,67.10
2019-04-05T08:01:45.419Z,66.40
2019-04-05T08:04:16.069Z,66.70
2019-04-05T08:06:49.519Z,64.30
2019-04-05T08:09:21.591Z,65.70
2019-04-05T08:11:52.557Z,65.60
2019-04-05T08:14:23.363Z,64.10
2019-04-05T08:16:53.938Z,59.90
2019-04-05T08:19:24.415Z,58.90
2019-04-05T08:21:54.941Z,58.60
2019-04-05T08:24:25.411Z,59.00
2019-04-05T08:26:56.913Z,60.00
2019-04-05T08:29:27.385Z,62.80
2019-04-05T08:31:57.896Z,58.80
2019-04-05T08:34:28.359Z,59.30
2019-04-05T08:36:58.867Z,57.80
2019-04-05T08:39:29.352Z,55.80
2019-04-05T08:42:01.631Z,55.50
2019-04-05T08:44:32.157Z,55.80
2019-04-05T08:47:03.823Z,52.90
2019-04-05T08:49:34.306Z,51.10
2019-04-05T08:52:04.952Z,50.70
2019-04-05T08:54:36.979Z,51.10
2019-04-05T08:57:07.682Z,51.30
2019-04-05T08:59:38.169Z,50.50
2019-04-05T09:02:08.652Z,49.40
2019-04-05T09:04:39.182Z,50.20
2019-04-05T09:07:09.691Z,52.90
2019-04-05T09:09:40.160Z,53.70
2019-04-05T09:12:10.659Z,50.90
2019-04-05T09:14:41.165Z,49.30
2019-04-05T09:17:11.626Z,49.10
2019-04-05T09:19:42.132Z,48.20
2019-04-05T09:22:12.601Z,49.60
2019-04-05T09:24:43.182Z,50.50
2019-04-05T09:27:13.687Z,50.00
2019-04-05T09:29:44.152Z,49.50
2019-04-05T09:32:14.657Z,47.90
2019-04-05T09:34:45.203Z,47.20
2019-04-05T09:37:15.706Z,47.30
2019-04-05T09:39:46.182Z,47.70
2019-04-05T09:42:16.696Z,49.20
2019-04-05T09:44:47.162Z,48.90
2019-04-05T09:47:17.753Z,49.10
2019-04-05T09:49:48.264Z,48.90
2019-04-05T09:52:18.758Z,49.90
2019-04-05T09:54:49.231Z,48.50
2019-04-05T09:57:19.749Z,44.60
2019-04-05T09:59:50.224Z,42.90
2019-04-05T10:02:20.725Z,42.60
2019-04-05T10:04:51.237Z,41.90
2019-04-05T10:07:21.712Z,42.20
2019-04-05T10:09:52.198Z,43.60
2019-04-05T10:12:22.666Z,43.70
2019-04-05T10:14:53.191Z,41.70
2019-04-05T10:17:23.660Z,39.60
2019-04-05T10:19:54.157Z,39.20
2019-04-05T10:22:24.629Z,37.70
2019-04-05T10:24:57.568Z,38.10
2019-04-05T10:27:28.042Z,37.90
2019-04-05T10:29:58.539Z,36.70
2019-04-05T10:32:29.009Z,37.20
2019-04-05T10:34:59.525Z,35.60
2019-04-05T10:37:29.994Z,34.70
2019-04-05T10:40:00.496Z,35.00
2019-04-05T10:42:37.959Z,34.70
2019-04-05T10:45:12.039Z,34.90
2019-04-05T10:47:42.560Z,33.80
2019-04-05T10:50:16.267Z,35.50
2019-04-05T10:52:46.765Z,34.00
2019-04-05T10:55:17.426Z,33.30
2019-04-05T10:57:47.914Z,33.30
2019-04-05T11:00:20.761Z,32.60
2019-04-05T11:02:51.260Z,32.80
2019-04-05T11:05:21.788Z,31.70
2019-04-05T11:07:52.256Z,32.50
2019-04-05T11:10:22.835Z,31.40
2019-04-05T11:12:53.296Z,31.10
2019-04-05T11:15:23.799Z,30.60
2019-04-05T11:17:54.292Z,30.30
2019-04-05T11:20:25.209Z,30.20
2019-04-05T11:22:55.671Z,29.30
2019-04-05T11:25:26.176Z,29.10
2019-04-05T11:27:56.978Z,29.90
2019-04-05T11:30:43.417Z,31.40
2019-04-05T11:33:14.331Z,32.80
2019-04-05T11:35:45.323Z,34.20
2019-04-05T11:38:36.678Z,32.80
2019-04-05T11:41:07.889Z,31.60
2019-04-05T11:43:39.646Z,30.00
2019-04-05T11:46:10.568Z,29.90
2019-04-05T11:48:41.494Z,30.10
2019-04-05T11:51:14.910Z,30.10
2019-04-05T11:53:45.416Z,29.90
2019-04-05T11:56:19.740Z,29.80
2019-04-05T11:58:49.419Z,30.20
2019-04-05T12:01:23.452Z,30.00
2019-04-05T12:03:54.014Z,29.50
2019-04-05T12:06:24.489Z,29.70
2019-04-05T12:08:55.004Z,29.40
2019-04-05T12:11:25.487Z,29.70
2019-04-05T12:13:56.000Z,29.40
2019-04-05T12:16:26.475Z,29.20
2019-04-05T12:18:58.926Z,30.40
2019-04-05T12:21:29.171Z,28.80
2019-04-05T12:24:02.299Z,28.50
2019-04-05T12:26:32.413Z,28.80
2019-04-05T12:29:04.114Z,28.90
2019-04-05T12:31:34.589Z,28.50
2019-04-05T12:34:05.171Z,28.50
2019-04-05T12:36:35.678Z,29.10
2019-04-05T12:39:08.498Z,29.10
2019-04-05T12:41:40.891Z,28.40
2019-04-05T12:44:15.140Z,27.40
2019-04-05T12:46:45.842Z,27.40
2019-04-05T12:49:16.818Z,27.40
2019-04-05T12:51:47.276Z,27.70
2019-04-05T12:54:17.746Z,26.90
2019-04-05T12:56:48.263Z,27.60
2019-04-05T12:59:18.742Z,28.40
2019-04-05T13:01:49.243Z,27.90
2019-04-05T13:04:20.615Z,29.00
2019-04-05T13:06:52.964Z,29.10
2019-04-05T13:09:24.688Z,29.20
2019-04-05T13:11:57.407Z,28.20
2019-04-05T13:14:27.557Z,28.00
2019-04-05T13:17:01.789Z,27.80
2019-04-05T13:19:30.733Z,28.00
2019-04-05T13:22:02.817Z,27.60
2019-04-05T13:24:34.040Z,27.90
2019-04-05T13:27:04.912Z,28.70
2019-04-05T13:29:35.374Z,29.20
2019-04-05T13:32:06.015Z,29.50
2019-04-05T13:34:36.526Z,29.20
2019-04-05T13:37:19.303Z,29.20
2019-04-05T13:39:39.476Z,29.40
2019-04-05T13:42:09.953Z,29.20
2019-04-05T13:44:40.532Z,29.10
2019-04-05T13:47:11.010Z,29.20
2019-04-05T13:49:41.600Z,29.10
2019-04-05T13:52:12.766Z,29.70
2019-04-05T13:54:43.389Z,30.70
2019-04-05T13:57:13.949Z,30.70
2019-04-05T13:59:44.835Z,30.70
2019-04-05T14:02:15.448Z,31.10
2019-04-05T14:04:45.973Z,31.40
2019-04-05T14:07:16.460Z,31.80
2019-04-05T14:09:46.982Z,31.90
2019-04-05T14:12:17.495Z,32.10
2019-04-05T14:14:51.404Z,32.80
2019-04-05T14:17:21.146Z,32.80
2019-04-05T14:19:51.620Z,33.30
2019-04-05T14:22:22.651Z,33.90
2019-04-05T14:24:56.436Z,33.60
2019-04-05T14:27:25.717Z,33.40
2019-04-05T14:29:56.182Z,34.10
2019-04-05T14:32:26.747Z,33.80
2019-04-05T14:34:57.251Z,34.00
2019-04-05T14:37:27.756Z,34.20
2019-04-05T14:39:58.310Z,34.20
2019-04-05T14:42:29.765Z,34.80
2019-04-05T14:45:00.380Z,35.30
2019-04-05T14:47:31.031Z,34.10
2019-04-05T14:50:01.595Z,33.50
2019-04-05T14:52:32.096Z,33.00
2019-04-05T14:55:02.768Z,33.20
2019-04-05T14:57:35.480Z,33.60
2019-04-05T15:00:08.734Z,34.00
2019-04-05T15:02:39.279Z,34.10
2019-04-05T15:05:10.318Z,33.80
2019-04-05T15:07:41.397Z,33.60
2019-04-05T15:10:12.335Z,34.20
2019-04-05T15:12:42.809Z,34.30
2019-04-05T15:15:13.948Z,34.50
2019-04-05T15:17:48.266Z,34.90
2019-04-05T15:20:17.241Z,35.10
2019-04-05T15:22:47.699Z,35.00
2019-04-05T15:25:21.569Z,35.50
2019-04-05T15:27:55.182Z,35.50
2019-04-05T15:30:25.656Z,36.50
2019-04-05T15:32:57.675Z,36.60
2019-04-05T15:35:28.269Z,36.20
2019-04-05T15:38:01.424Z,36.20
2019-04-05T15:40:34.694Z,36.20
2019-04-05T15:43:05.269Z,36.50
2019-04-05T15:45:35.737Z,36.80
2019-04-05T15:48:06.377Z,37.00
2019-04-05T15:50:36.847Z,37.10
2019-04-05T15:53:07.352Z,36.80
2019-04-05T15:55:38.286Z,37.40
2019-04-05T15:58:08.821Z,37.90
2019-04-05T16:00:44.728Z,37.60
2019-04-05T16:03:16.372Z,37.80
2019-04-05T16:05:47.388Z,37.70
2019-04-05T16:08:21.736Z,38.00
2019-04-05T16:10:52.302Z,38.30
2019-04-05T16:13:22.813Z,38.60
2019-04-05T16:15:53.324Z,38.30
2019-04-05T16:18:23.830Z,38.80
2019-04-05T16:20:54.302Z,39.60
2019-04-05T16:23:24.813Z,40.20
2019-04-05T16:25:55.376Z,40.10
2019-04-05T16:28:25.880Z,40.30
2019-04-05T16:30:57.896Z,40.70
2019-04-05T16:33:28.430Z,41.10
2019-04-05T16:35:58.905Z,40.90
2019-04-05T16:38:29.439Z,40.80
2019-04-05T16:40:59.938Z,41.00
2019-04-05T16:43:30.413Z,41.20
2019-04-05T16:46:00.939Z,41.20
2019-04-05T16:48:31.402Z,41.50
2019-04-05T16:51:01.949Z,42.00
2019-04-05T16:53:32.786Z,42.20
2019-04-05T16:56:05.250Z,42.90
2019-04-05T16:58:35.828Z,41.60
2019-04-05T17:01:06.308Z,43.00
2019-04-05T17:03:37.285Z,44.20
2019-04-05T17:06:07.759Z,45.10
2019-04-05T17:08:38.267Z,45.60
2019-04-05T17:11:08.739Z,45.80
2019-04-05T17:13:39.260Z,48.00
2019-04-05T17:16:09.797Z,51.20
2019-04-05T17:18:40.372Z,52.40
2019-04-05T17:21:10.846Z,50.00
2019-04-05T17:23:41.344Z,50.40
2019-04-05T17:26:11.871Z,50.90
2019-04-05T17:28:42.370Z,51.40
2019-04-05T17:31:12.878Z,52.30
2019-04-05T17:33:43.850Z,53.00
2019-04-05T17:36:14.376Z,54.20
2019-04-05T17:38:44.851Z,55.10
2019-04-05T17:41:17.224Z,55.90
2019-04-05T17:43:47.773Z,56.80
2019-04-05T17:46:18.951Z,57.60
2019-04-05T17:48:51.705Z,57.90
2019-04-05T17:51:21.802Z,58.70
2019-04-05T17:53:52.339Z,59.10
2019-04-05T17:56:23.166Z,59.90
2019-04-05T17:58:56.765Z,59.80
2019-04-05T18:01:27.351Z,60.60
2019-04-05T18:03:57.831Z,62.30
2019-04-05T18:06:28.619Z,63.10
2019-04-05T18:08:59.140Z,63.80
2019-04-05T18:11:29.963Z,64.40
2019-04-05T18:14:01.142Z,65.30
2019-04-05T18:16:32.987Z,66.80
2019-04-05T18:19:04.340Z,66.60
2019-04-05T18:21:34.820Z,67.40
2019-04-05T18:24:06.972Z,67.60
2019-04-05T18:26:37.449Z,67.70
2019-04-05T18:29:07.956Z,68.40
2019-04-05T18:31:38.507Z,68.40
2019-04-05T18:34:09.013Z,69.30
2019-04-05T18:36:39.566Z,68.80
2019-04-05T18:39:11.771Z,69.00
2019-04-05T18:41:42.312Z,68.90
2019-04-05T18:44:12.826Z,68.40
2019-04-05T18:46:43.310Z,68.90
2019-04-05T18:49:13.798Z,69.60
2019-04-05T18:51:44.261Z,71.10
2019-04-05T18:54:14.765Z,71.40
2019-04-05T18:56:45.273Z,71.30
2019-04-05T18:59:15.760Z,71.80
2019-04-05T19:01:47.626Z,72.30
2019-04-05T19:04:21.168Z,73.00
2019-04-05T19:06:51.638Z,73.30
2019-04-05T19:09:22.315Z,73.30
2019-04-05T19:11:52.788Z,73.00
2019-04-05T19:14:23.277Z,72.60
2019-04-05T19:16:53.838Z,72.30
2019-04-05T19:19:24.338Z,72.20
2019-04-05T19:21:54.887Z,72.50
2019-04-05T19:24:25.357Z,73.20
2019-04-05T19:26:55.977Z,74.10
2019-04-05T19:29:26.743Z,74.80
2019-04-05T19:49:43.252Z,79.10
2019-04-05T19:52:13.765Z,79.60
2019-04-05T19:54:44.379Z,80.40
2019-04-05T19:57:14.893Z,79.00
2019-04-05T19:59:45.382Z,78.70
2019-04-05T20:02:15.945Z,79.30
2019-04-05T20:04:46.408Z,80.50
2019-04-05T20:07:16.911Z,81.50
2019-04-05T20:09:47.423Z,81.80
2019-04-05T20:12:17.899Z,82.50
2019-04-05T20:14:48.419Z,82.60
2019-04-05T20:17:18.975Z,82.70
2019-04-05T20:19:49.505Z,84.50
2019-04-05T20:22:19.967Z,83.80
2019-04-05T20:24:50.463Z,83.80
2019-04-05T20:27:22.517Z,83.50
2019-04-05T20:29:52.989Z,84.00
2019-04-05T20:32:23.495Z,85.00
2019-04-05T20:34:53.960Z,85.20
2019-04-05T20:37:24.464Z,85.80
2019-04-05T20:39:55.017Z,85.60
2019-04-05T20:42:25.521Z,86.20
2019-04-05T20:44:55.991Z,86.10
2019-04-05T20:47:27.279Z,86.10
2019-04-05T20:49:57.775Z,86.10
2019-04-05T20:52:28.271Z,84.80
2019-04-05T20:54:58.783Z,85.00
2019-04-05T20:57:30.403Z,84.70
2019-04-05T21:00:02.548Z,85.50
2019-04-05T21:02:33.022Z,85.80
2019-04-05T21:05:03.692Z,83.80
2019-04-05T21:07:34.166Z,85.10
2019-04-05T21:10:07.174Z,86.60
2019-04-05T21:12:37.647Z,87.20
2019-04-05T21:15:09.287Z,87.30
2019-04-05T21:17:39.758Z,87.50
2019-04-05T21:20:10.585Z,88.00
2019-04-05T21:22:41.250Z,88.10
2019-04-05T21:25:11.811Z,88.10
2019-04-05T21:27:42.291Z,88.80
2019-04-05T21:30:13.216Z,88.80
2019-04-05T21:32:43.674Z,88.60
2019-04-05T21:35:15.851Z,88.70
2019-04-05T21:37:46.317Z,88.30
2019-04-05T21:40:17.534Z,88.10
2019-04-05T21:42:48.040Z,88.30
2019-04-05T21:45:18.553Z,87.90
2019-04-05T21:47:49.035Z,88.20
2019-04-05T21:50:19.547Z,88.40
2019-04-05T21:52:50.006Z,88.60
2019-04-05T21:55:20.519Z,88.90
2019-04-05T21:57:51.234Z,89.30
2019-04-05T22:00:27.766Z,88.60
2019-04-05T22:02:58.317Z,89.00
2019-04-05T22:05:28.898Z,88.90
2019-04-05T22:07:59.447Z,89.10
2019-04-05T22:10:29.935Z,89.00
2019-04-05T22:13:00.432Z,89.50
2019-04-05T22:15:33.698Z,89.40
2019-04-05T22:18:04.213Z,89.70
2019-04-05T22:20:34.666Z,89.70
2019-04-05T22:23:05.195Z,89.40
2019-04-05T22:25:35.658Z,89.80
2019-04-05T22:28:06.245Z,89.80
2019-04-05T22:30:36.790Z,90.00
2019-04-05T22:33:07.371Z,89.90
2019-04-05T22:35:37.864Z,90.00
2019-04-05T22:38:08.347Z,90.20
2019-04-05T22:40:38.839Z,90.40
2019-04-05T22:43:09.355Z,90.20
2019-04-05T22:45:39.809Z,90.00
2019-04-05T22:48:10.303Z,90.00
2019-04-05T22:50:40.876Z,90.00
2019-04-05T22:53:11.346Z,89.80
2019-04-05T22:55:43.390Z,90.10
2019-04-05T22:58:13.856Z,90.10
2019-04-05T23:00:44.428Z,90.20
2019-04-05T23:03:14.904Z,90.10
2019-04-05T23:05:45.414Z,90.10
2019-04-05T23:08:15.959Z,90.10
2019-04-05T23:10:46.521Z,90.30
2019-04-05T23:13:16.982Z,90.50
2019-04-05T23:15:47.487Z,90.40
2019-04-05T23:18:17.944Z,90.40
2019-04-05T23:20:48.439Z,90.30
2019-04-05T23:23:18.954Z,90.50
2019-04-05T23:25:49.448Z,91.00
2019-04-05T23:28:19.950Z,90.80
2019-04-05T23:30:50.407Z,91.00
2019-04-05T23:33:21.481Z,91.40
2019-04-05T23:35:51.958Z,90.90
2019-04-05T23:38:22.454Z,90.70
2019-04-05T23:40:52.937Z,90.50
2019-04-05T23:43:23.439Z,90.30
2019-04-05T23:45:54.004Z,90.30
2019-04-05T23:48:24.490Z,90.50
2019-04-05T23:50:55.045Z,90.60
2019-04-05T23:53:25.550Z,90.50
2019-04-05T23:55:56.019Z,90.50
2019-04-05T23:58:26.515Z,90.80
